sensor_id;sensor_type;location;lat;lon;timestamp;P1;durP1;ratioP1;P2;durP2;ratioP2
84864;SDS011;75122;41.650;25.368;2024-03-17T00:00:42;8.75;;;6.20;;
84864;SDS011;75122;41.650;25.368;2024-03-17T00:03:07;9.52;;;5.90;;
84864;SDS011;75122;41.650;25.368;2024-03-17T00:05:36;8.25;;;5.50;;
84864;SDS011;75122;41.650;25.368;2024-03-17T00:08:02;10.30;;;5.35;;
84864;SDS011;75122;41.650;25.368;2024-03-17T00:10:30;12.32;;;6.75;;
84864;SDS011;75122;41.650;25.368;2024-03-17T00:12:56;9.55;;;5.85;;
84864;SDS011;75122;41.650;25.368;2024-03-17T00:15:22;7.93;;;5.00;;
84864;SDS011;75122;41.650;25.368;2024-03-17T00:17:48;6.95;;;4.75;;
84864;SDS011;75122;41.650;25.368;2024-03-17T00:20:13;9.13;;;5.40;;
84864;SDS011;75122;41.650;25.368;2024-03-17T00:22:48;8.63;;;4.65;;
84864;SDS011;75122;41.650;25.368;2024-03-17T00:25:14;8.10;;;5.07;;
84864;SDS011;75122;41.650;25.368;2024-03-17T00:27:40;9.40;;;4.97;;
84864;SDS011;75122;41.650;25.368;2024-03-17T00:30:08;9.05;;;4.72;;
84864;SDS011;75122;41.650;25.368;2024-03-17T00:32:38;8.35;;;5.40;;
84864;SDS011;75122;41.650;25.368;2024-03-17T00:35:04;9.13;;;5.65;;
84864;SDS011;75122;41.650;25.368;2024-03-17T00:37:31;8.10;;;4.80;;
84864;SDS011;75122;41.650;25.368;2024-03-17T00:39:57;6.55;;;4.22;;
84864;SDS011;75122;41.650;25.368;2024-03-17T00:42:23;7.03;;;4.40;;
84864;SDS011;75122;41.650;25.368;2024-03-17T00:44:49;9.45;;;5.40;;
84864;SDS011;75122;41.650;25.368;2024-03-17T00:47:15;7.97;;;4.72;;
84864;SDS011;75122;41.650;25.368;2024-03-17T00:49:40;6.47;;;4.72;;
84864;SDS011;75122;41.650;25.368;2024-03-17T00:52:05;8.05;;;4.75;;
84864;SDS011;75122;41.650;25.368;2024-03-17T00:54:31;7.45;;;4.72;;
84864;SDS011;75122;41.650;25.368;2024-03-17T00:56:57;9.95;;;5.25;;
84864;SDS011;75122;41.650;25.368;2024-03-17T00:59:22;7.55;;;4.95;;
84864;SDS011;75122;41.650;25.368;2024-03-17T01:01:48;5.97;;;4.30;;
84864;SDS011;75122;41.650;25.368;2024-03-17T01:04:13;11.07;;;6.47;;
84864;SDS011;75122;41.650;25.368;2024-03-17T01:06:38;12.25;;;6.80;;
84864;SDS011;75122;41.650;25.368;2024-03-17T01:09:06;11.27;;;5.50;;
84864;SDS011;75122;41.650;25.368;2024-03-17T01:11:31;11.07;;;5.88;;
84864;SDS011;75122;41.650;25.368;2024-03-17T01:13:57;13.10;;;6.50;;
84864;SDS011;75122;41.650;25.368;2024-03-17T01:16:22;14.30;;;6.70;;
84864;SDS011;75122;41.650;25.368;2024-03-17T01:18:48;14.18;;;7.93;;
84864;SDS011;75122;41.650;25.368;2024-03-17T01:21:13;14.25;;;6.50;;
84864;SDS011;75122;41.650;25.368;2024-03-17T01:23:39;13.23;;;6.82;;
84864;SDS011;75122;41.650;25.368;2024-03-17T01:26:04;11.35;;;7.20;;
84864;SDS011;75122;41.650;25.368;2024-03-17T01:28:30;13.65;;;7.07;;
84864;SDS011;75122;41.650;25.368;2024-03-17T01:30:56;12.07;;;6.88;;
84864;SDS011;75122;41.650;25.368;2024-03-17T01:33:21;11.82;;;6.25;;
84864;SDS011;75122;41.650;25.368;2024-03-17T01:35:47;15.35;;;6.85;;
84864;SDS011;75122;41.650;25.368;2024-03-17T01:38:13;12.73;;;6.55;;
84864;SDS011;75122;41.650;25.368;2024-03-17T01:40:38;16.33;;;7.18;;
84864;SDS011;75122;41.650;25.368;2024-03-17T01:43:09;18.83;;;8.55;;
84864;SDS011;75122;41.650;25.368;2024-03-17T01:45:36;27.33;;;9.25;;
84864;SDS011;75122;41.650;25.368;2024-03-17T01:48:03;21.23;;;9.38;;
84864;SDS011;75122;41.650;25.368;2024-03-17T01:50:34;21.25;;;7.93;;
84864;SDS011;75122;41.650;25.368;2024-03-17T01:53:04;19.50;;;8.13;;
84864;SDS011;75122;41.650;25.368;2024-03-17T01:55:35;11.80;;;7.07;;
84864;SDS011;75122;41.650;25.368;2024-03-17T01:58:02;14.43;;;6.22;;
84864;SDS011;75122;41.650;25.368;2024-03-17T02:00:29;19.27;;;7.53;;
84864;SDS011;75122;41.650;25.368;2024-03-17T02:02:56;13.68;;;6.60;;
84864;SDS011;75122;41.650;25.368;2024-03-17T02:05:22;15.18;;;7.45;;
84864;SDS011;75122;41.650;25.368;2024-03-17T02:07:48;12.85;;;5.88;;
84864;SDS011;75122;41.650;25.368;2024-03-17T02:10:13;13.88;;;6.38;;
84864;SDS011;75122;41.650;25.368;2024-03-17T02:12:39;11.57;;;6.25;;
84864;SDS011;75122;41.650;25.368;2024-03-17T02:15:06;10.95;;;6.15;;
84864;SDS011;75122;41.650;25.368;2024-03-17T02:17:32;10.23;;;5.50;;
84864;SDS011;75122;41.650;25.368;2024-03-17T02:19:58;11.10;;;6.35;;
84864;SDS011;75122;41.650;25.368;2024-03-17T02:22:24;10.02;;;6.20;;
84864;SDS011;75122;41.650;25.368;2024-03-17T02:24:50;10.32;;;6.85;;
84864;SDS011;75122;41.650;25.368;2024-03-17T02:27:16;11.68;;;7.50;;
84864;SDS011;75122;41.650;25.368;2024-03-17T02:29:41;12.40;;;6.45;;
84864;SDS011;75122;41.650;25.368;2024-03-17T02:32:07;7.38;;;5.10;;
84864;SDS011;75122;41.650;25.368;2024-03-17T02:34:33;7.38;;;5.10;;
84864;SDS011;75122;41.650;25.368;2024-03-17T02:37:02;10.30;;;5.75;;
84864;SDS011;75122;41.650;25.368;2024-03-17T02:39:29;6.15;;;4.53;;
84864;SDS011;75122;41.650;25.368;2024-03-17T02:42:05;9.70;;;5.03;;
84864;SDS011;75122;41.650;25.368;2024-03-17T02:44:35;9.70;;;5.00;;
84864;SDS011;75122;41.650;25.368;2024-03-17T02:47:01;8.10;;;5.18;;
84864;SDS011;75122;41.650;25.368;2024-03-17T02:49:29;9.43;;;5.68;;
84864;SDS011;75122;41.650;25.368;2024-03-17T02:52:07;8.20;;;4.85;;
84864;SDS011;75122;41.650;25.368;2024-03-17T02:54:38;10.63;;;4.85;;
84864;SDS011;75122;41.650;25.368;2024-03-17T02:57:05;8.25;;;5.13;;
84864;SDS011;75122;41.650;25.368;2024-03-17T02:59:31;8.05;;;5.32;;
84864;SDS011;75122;41.650;25.368;2024-03-17T03:01:58;7.57;;;4.82;;
84864;SDS011;75122;41.650;25.368;2024-03-17T03:04:24;8.88;;;5.10;;
84864;SDS011;75122;41.650;25.368;2024-03-17T03:06:50;7.65;;;4.95;;
84864;SDS011;75122;41.650;25.368;2024-03-17T03:09:15;10.18;;;5.70;;
84864;SDS011;75122;41.650;25.368;2024-03-17T03:11:46;7.80;;;4.68;;
84864;SDS011;75122;41.650;25.368;2024-03-17T03:14:12;8.75;;;5.38;;
84864;SDS011;75122;41.650;25.368;2024-03-17T03:16:38;10.07;;;5.60;;
84864;SDS011;75122;41.650;25.368;2024-03-17T03:19:03;9.27;;;5.95;;
84864;SDS011;75122;41.650;25.368;2024-03-17T03:21:30;8.95;;;6.10;;
84864;SDS011;75122;41.650;25.368;2024-03-17T03:23:56;12.13;;;5.38;;
84864;SDS011;75122;41.650;25.368;2024-03-17T03:26:21;9.10;;;5.55;;
84864;SDS011;75122;41.650;25.368;2024-03-17T03:28:48;9.63;;;5.85;;
84864;SDS011;75122;41.650;25.368;2024-03-17T03:31:15;10.30;;;5.75;;
84864;SDS011;75122;41.650;25.368;2024-03-17T03:33:42;10.32;;;5.65;;
84864;SDS011;75122;41.650;25.368;2024-03-17T03:36:09;9.30;;;5.53;;
84864;SDS011;75122;41.650;25.368;2024-03-17T03:38:38;15.93;;;5.93;;
84864;SDS011;75122;41.650;25.368;2024-03-17T03:41:10;10.95;;;5.30;;
84864;SDS011;75122;41.650;25.368;2024-03-17T03:43:37;7.25;;;5.20;;
84864;SDS011;75122;41.650;25.368;2024-03-17T03:46:03;6.65;;;4.95;;
84864;SDS011;75122;41.650;25.368;2024-03-17T03:48:29;7.22;;;4.65;;
84864;SDS011;75122;41.650;25.368;2024-03-17T03:50:54;9.52;;;5.70;;
84864;SDS011;75122;41.650;25.368;2024-03-17T03:53:20;13.50;;;5.97;;
84864;SDS011;75122;41.650;25.368;2024-03-17T03:55:46;16.63;;;7.47;;
84864;SDS011;75122;41.650;25.368;2024-03-17T03:58:11;23.83;;;10.05;;
84864;SDS011;75122;41.650;25.368;2024-03-17T04:00:40;15.40;;;8.73;;
84864;SDS011;75122;41.650;25.368;2024-03-17T04:03:05;11.98;;;6.15;;
84864;SDS011;75122;41.650;25.368;2024-03-17T04:05:31;8.85;;;6.25;;
84864;SDS011;75122;41.650;25.368;2024-03-17T04:07:57;8.32;;;5.55;;
84864;SDS011;75122;41.650;25.368;2024-03-17T04:10:23;8.75;;;5.85;;
84864;SDS011;75122;41.650;25.368;2024-03-17T04:12:49;10.95;;;6.70;;
84864;SDS011;75122;41.650;25.368;2024-03-17T04:15:15;7.75;;;6.10;;
84864;SDS011;75122;41.650;25.368;2024-03-17T04:17:41;9.80;;;6.47;;
84864;SDS011;75122;41.650;25.368;2024-03-17T04:20:07;21.40;;;9.63;;
84864;SDS011;75122;41.650;25.368;2024-03-17T04:22:34;32.17;;;13.00;;
84864;SDS011;75122;41.650;25.368;2024-03-17T04:24:59;54.17;;;24.05;;
84864;SDS011;75122;41.650;25.368;2024-03-17T04:27:26;33.83;;;16.30;;
84864;SDS011;75122;41.650;25.368;2024-03-17T04:29:52;33.78;;;15.15;;
84864;SDS011;75122;41.650;25.368;2024-03-17T04:32:21;23.08;;;9.80;;
84864;SDS011;75122;41.650;25.368;2024-03-17T04:34:47;15.70;;;8.52;;
84864;SDS011;75122;41.650;25.368;2024-03-17T04:37:13;15.27;;;8.25;;
84864;SDS011;75122;41.650;25.368;2024-03-17T04:39:42;15.35;;;8.02;;
84864;SDS011;75122;41.650;25.368;2024-03-17T04:42:09;11.93;;;7.22;;
84864;SDS011;75122;41.650;25.368;2024-03-17T04:44:36;9.52;;;6.60;;
84864;SDS011;75122;41.650;25.368;2024-03-17T04:47:02;12.27;;;7.63;;
84864;SDS011;75122;41.650;25.368;2024-03-17T04:49:42;12.20;;;6.25;;
84864;SDS011;75122;41.650;25.368;2024-03-17T04:52:09;16.58;;;8.55;;
84864;SDS011;75122;41.650;25.368;2024-03-17T04:54:35;12.98;;;7.10;;
84864;SDS011;75122;41.650;25.368;2024-03-17T04:57:01;18.27;;;8.43;;
84864;SDS011;75122;41.650;25.368;2024-03-17T04:59:27;19.10;;;9.77;;
84864;SDS011;75122;41.650;25.368;2024-03-17T05:01:53;18.40;;;9.25;;
84864;SDS011;75122;41.650;25.368;2024-03-17T05:04:19;15.05;;;7.20;;
84864;SDS011;75122;41.650;25.368;2024-03-17T05:06:45;13.38;;;7.75;;
84864;SDS011;75122;41.650;25.368;2024-03-17T05:09:12;14.65;;;7.93;;
84864;SDS011;75122;41.650;25.368;2024-03-17T05:11:40;15.57;;;8.55;;
84864;SDS011;75122;41.650;25.368;2024-03-17T05:14:06;18.10;;;8.27;;
84864;SDS011;75122;41.650;25.368;2024-03-17T05:16:32;13.88;;;8.10;;
84864;SDS011;75122;41.650;25.368;2024-03-17T05:18:57;25.75;;;14.60;;
84864;SDS011;75122;41.650;25.368;2024-03-17T05:21:23;21.23;;;12.27;;
84864;SDS011;75122;41.650;25.368;2024-03-17T05:23:49;44.35;;;21.98;;
84864;SDS011;75122;41.650;25.368;2024-03-17T05:26:14;18.73;;;11.48;;
84864;SDS011;75122;41.650;25.368;2024-03-17T05:28:40;19.48;;;10.05;;
84864;SDS011;75122;41.650;25.368;2024-03-17T05:31:06;27.65;;;16.58;;
84864;SDS011;75122;41.650;25.368;2024-03-17T05:33:31;33.13;;;19.05;;
84864;SDS011;75122;41.650;25.368;2024-03-17T05:35:58;65.07;;;33.08;;
84864;SDS011;75122;41.650;25.368;2024-03-17T05:38:24;46.05;;;24.70;;
84864;SDS011;75122;41.650;25.368;2024-03-17T05:40:58;31.42;;;16.88;;
84864;SDS011;75122;41.650;25.368;2024-03-17T05:43:28;26.55;;;14.98;;
84864;SDS011;75122;41.650;25.368;2024-03-17T05:45:56;27.30;;;14.18;;
84864;SDS011;75122;41.650;25.368;2024-03-17T05:48:22;31.45;;;15.20;;
84864;SDS011;75122;41.650;25.368;2024-03-17T05:50:49;24.13;;;15.43;;
84864;SDS011;75122;41.650;25.368;2024-03-17T05:53:16;19.90;;;10.68;;
84864;SDS011;75122;41.650;25.368;2024-03-17T05:55:43;26.00;;;12.95;;
84864;SDS011;75122;41.650;25.368;2024-03-17T05:58:09;28.60;;;11.95;;
84864;SDS011;75122;41.650;25.368;2024-03-17T06:00:37;17.05;;;8.15;;
84864;SDS011;75122;41.650;25.368;2024-03-17T06:03:04;12.98;;;8.02;;
84864;SDS011;75122;41.650;25.368;2024-03-17T06:05:31;14.95;;;8.82;;
84864;SDS011;75122;41.650;25.368;2024-03-17T06:07:58;14.77;;;8.52;;
84864;SDS011;75122;41.650;25.368;2024-03-17T06:10:23;16.52;;;8.05;;
84864;SDS011;75122;41.650;25.368;2024-03-17T06:12:49;12.35;;;8.20;;
84864;SDS011;75122;41.650;25.368;2024-03-17T06:15:16;12.20;;;6.70;;
84864;SDS011;75122;41.650;25.368;2024-03-17T06:17:41;11.90;;;7.45;;
84864;SDS011;75122;41.650;25.368;2024-03-17T06:20:07;23.85;;;12.40;;
84864;SDS011;75122;41.650;25.368;2024-03-17T06:22:36;15.63;;;8.80;;
84864;SDS011;75122;41.650;25.368;2024-03-17T06:25:04;35.70;;;16.75;;
84864;SDS011;75122;41.650;25.368;2024-03-17T06:27:31;21.73;;;11.23;;
84864;SDS011;75122;41.650;25.368;2024-03-17T06:29:58;13.85;;;8.13;;
84864;SDS011;75122;41.650;25.368;2024-03-17T06:32:25;50.92;;;24.60;;
84864;SDS011;75122;41.650;25.368;2024-03-17T06:34:51;14.75;;;9.32;;
84864;SDS011;75122;41.650;25.368;2024-03-17T06:37:16;14.23;;;8.07;;
84864;SDS011;75122;41.650;25.368;2024-03-17T06:39:44;22.33;;;14.48;;
84864;SDS011;75122;41.650;25.368;2024-03-17T06:42:10;17.25;;;9.77;;
84864;SDS011;75122;41.650;25.368;2024-03-17T06:44:36;15.65;;;9.20;;
84864;SDS011;75122;41.650;25.368;2024-03-17T06:47:02;15.07;;;8.73;;
84864;SDS011;75122;41.650;25.368;2024-03-17T06:49:28;16.70;;;8.88;;
84864;SDS011;75122;41.650;25.368;2024-03-17T06:51:53;17.75;;;9.55;;
84864;SDS011;75122;41.650;25.368;2024-03-17T06:54:18;15.65;;;9.07;;
84864;SDS011;75122;41.650;25.368;2024-03-17T06:56:44;24.52;;;12.25;;
84864;SDS011;75122;41.650;25.368;2024-03-17T06:59:10;18.50;;;9.85;;
84864;SDS011;75122;41.650;25.368;2024-03-17T07:01:35;17.73;;;9.73;;
84864;SDS011;75122;41.650;25.368;2024-03-17T07:04:01;20.50;;;10.55;;
84864;SDS011;75122;41.650;25.368;2024-03-17T07:06:26;18.02;;;10.88;;
84864;SDS011;75122;41.650;25.368;2024-03-17T07:08:52;17.98;;;9.63;;
84864;SDS011;75122;41.650;25.368;2024-03-17T07:11:17;18.08;;;10.13;;
84864;SDS011;75122;41.650;25.368;2024-03-17T07:13:43;17.25;;;9.90;;
84864;SDS011;75122;41.650;25.368;2024-03-17T07:16:08;16.80;;;10.40;;
84864;SDS011;75122;41.650;25.368;2024-03-17T07:18:35;16.50;;;10.48;;
84864;SDS011;75122;41.650;25.368;2024-03-17T07:21:04;16.77;;;9.15;;
84864;SDS011;75122;41.650;25.368;2024-03-17T07:23:30;16.02;;;8.73;;
84864;SDS011;75122;41.650;25.368;2024-03-17T07:25:56;17.20;;;10.40;;
84864;SDS011;75122;41.650;25.368;2024-03-17T07:28:23;20.70;;;9.95;;
84864;SDS011;75122;41.650;25.368;2024-03-17T07:30:53;17.02;;;9.32;;
84864;SDS011;75122;41.650;25.368;2024-03-17T07:33:21;15.02;;;8.20;;
84864;SDS011;75122;41.650;25.368;2024-03-17T07:35:51;17.35;;;8.18;;
84864;SDS011;75122;41.650;25.368;2024-03-17T07:38:21;11.02;;;8.05;;
84864;SDS011;75122;41.650;25.368;2024-03-17T07:43:22;14.50;;;8.77;;
84864;SDS011;75122;41.650;25.368;2024-03-17T07:45:56;16.27;;;9.13;;
84864;SDS011;75122;41.650;25.368;2024-03-17T07:48:23;16.60;;;9.07;;
84864;SDS011;75122;41.650;25.368;2024-03-17T07:50:58;15.35;;;8.80;;
84864;SDS011;75122;41.650;25.368;2024-03-17T07:53:27;15.70;;;9.15;;
84864;SDS011;75122;41.650;25.368;2024-03-17T07:56:05;15.07;;;9.43;;
84864;SDS011;75122;41.650;25.368;2024-03-17T07:58:32;21.95;;;9.88;;
84864;SDS011;75122;41.650;25.368;2024-03-17T08:00:59;20.55;;;10.77;;
84864;SDS011;75122;41.650;25.368;2024-03-17T08:03:26;30.10;;;10.90;;
84864;SDS011;75122;41.650;25.368;2024-03-17T08:05:52;17.63;;;9.40;;
84864;SDS011;75122;41.650;25.368;2024-03-17T08:08:18;14.35;;;9.52;;
84864;SDS011;75122;41.650;25.368;2024-03-17T08:10:44;16.92;;;10.60;;
84864;SDS011;75122;41.650;25.368;2024-03-17T08:13:11;18.55;;;11.02;;
84864;SDS011;75122;41.650;25.368;2024-03-17T08:15:38;16.65;;;10.23;;
84864;SDS011;75122;41.650;25.368;2024-03-17T08:18:03;17.35;;;11.38;;
84864;SDS011;75122;41.650;25.368;2024-03-17T08:20:35;22.40;;;12.20;;
84864;SDS011;75122;41.650;25.368;2024-03-17T08:23:01;15.25;;;9.32;;
84864;SDS011;75122;41.650;25.368;2024-03-17T08:25:27;17.75;;;10.63;;
84864;SDS011;75122;41.650;25.368;2024-03-17T08:27:53;16.45;;;10.52;;
84864;SDS011;75122;41.650;25.368;2024-03-17T08:30:18;14.10;;;8.48;;
84864;SDS011;75122;41.650;25.368;2024-03-17T08:32:43;15.55;;;9.43;;
84864;SDS011;75122;41.650;25.368;2024-03-17T08:35:10;15.57;;;8.82;;
84864;SDS011;75122;41.650;25.368;2024-03-17T08:37:38;13.48;;;8.45;;
84864;SDS011;75122;41.650;25.368;2024-03-17T08:40:03;14.73;;;8.85;;
84864;SDS011;75122;41.650;25.368;2024-03-17T08:42:31;18.33;;;10.43;;
84864;SDS011;75122;41.650;25.368;2024-03-17T08:44:57;20.00;;;9.88;;
84864;SDS011;75122;41.650;25.368;2024-03-17T08:47:22;11.90;;;7.78;;
84864;SDS011;75122;41.650;25.368;2024-03-17T08:49:50;15.65;;;8.35;;
84864;SDS011;75122;41.650;25.368;2024-03-17T08:52:16;13.10;;;7.97;;
84864;SDS011;75122;41.650;25.368;2024-03-17T08:54:45;18.60;;;10.10;;
84864;SDS011;75122;41.650;25.368;2024-03-17T08:57:11;14.02;;;8.73;;
84864;SDS011;75122;41.650;25.368;2024-03-17T08:59:37;14.00;;;7.22;;
84864;SDS011;75122;41.650;25.368;2024-03-17T09:02:03;12.40;;;7.20;;
84864;SDS011;75122;41.650;25.368;2024-03-17T09:04:28;11.00;;;7.40;;
84864;SDS011;75122;41.650;25.368;2024-03-17T09:06:54;16.23;;;7.40;;
84864;SDS011;75122;41.650;25.368;2024-03-17T09:09:21;12.10;;;6.95;;
84864;SDS011;75122;41.650;25.368;2024-03-17T09:11:47;13.40;;;8.32;;
84864;SDS011;75122;41.650;25.368;2024-03-17T09:14:13;14.60;;;7.68;;
84864;SDS011;75122;41.650;25.368;2024-03-17T09:16:38;10.82;;;7.68;;
84864;SDS011;75122;41.650;25.368;2024-03-17T09:19:04;12.10;;;7.68;;
84864;SDS011;75122;41.650;25.368;2024-03-17T09:21:29;13.48;;;6.80;;
84864;SDS011;75122;41.650;25.368;2024-03-17T09:23:54;14.45;;;7.32;;
84864;SDS011;75122;41.650;25.368;2024-03-17T09:26:20;12.65;;;7.85;;
84864;SDS011;75122;41.650;25.368;2024-03-17T09:28:45;12.48;;;7.38;;
84864;SDS011;75122;41.650;25.368;2024-03-17T09:31:11;15.40;;;7.75;;
84864;SDS011;75122;41.650;25.368;2024-03-17T09:33:37;16.73;;;8.38;;
84864;SDS011;75122;41.650;25.368;2024-03-17T09:36:04;10.07;;;6.75;;
84864;SDS011;75122;41.650;25.368;2024-03-17T09:38:31;13.90;;;7.90;;
84864;SDS011;75122;41.650;25.368;2024-03-17T09:40:57;14.05;;;7.63;;
84864;SDS011;75122;41.650;25.368;2024-03-17T09:43:25;13.00;;;7.97;;
84864;SDS011;75122;41.650;25.368;2024-03-17T09:45:51;11.10;;;7.10;;
84864;SDS011;75122;41.650;25.368;2024-03-17T09:50:56;13.23;;;6.63;;
84864;SDS011;75122;41.650;25.368;2024-03-17T09:55:51;12.13;;;7.32;;
84864;SDS011;75122;41.650;25.368;2024-03-17T09:58:18;12.02;;;7.20;;
84864;SDS011;75122;41.650;25.368;2024-03-17T10:00:44;12.60;;;6.40;;
84864;SDS011;75122;41.650;25.368;2024-03-17T10:03:10;11.48;;;6.55;;
84864;SDS011;75122;41.650;25.368;2024-03-17T10:05:35;8.60;;;6.25;;
84864;SDS011;75122;41.650;25.368;2024-03-17T10:08:01;12.07;;;6.72;;
84864;SDS011;75122;41.650;25.368;2024-03-17T10:10:27;9.15;;;6.22;;
84864;SDS011;75122;41.650;25.368;2024-03-17T10:12:52;10.25;;;6.43;;
84864;SDS011;75122;41.650;25.368;2024-03-17T10:15:18;8.65;;;5.80;;
84864;SDS011;75122;41.650;25.368;2024-03-17T10:17:48;8.30;;;5.45;;
84864;SDS011;75122;41.650;25.368;2024-03-17T10:20:17;10.65;;;6.43;;
84864;SDS011;75122;41.650;25.368;2024-03-17T10:23:04;9.65;;;6.60;;
84864;SDS011;75122;41.650;25.368;2024-03-17T10:25:34;9.63;;;6.03;;
84864;SDS011;75122;41.650;25.368;2024-03-17T10:28:09;8.80;;;5.32;;
84864;SDS011;75122;41.650;25.368;2024-03-17T10:30:36;9.05;;;5.22;;
84864;SDS011;75122;41.650;25.368;2024-03-17T10:33:02;7.53;;;4.70;;
84864;SDS011;75122;41.650;25.368;2024-03-17T10:38:02;10.57;;;5.60;;
84864;SDS011;75122;41.650;25.368;2024-03-17T10:40:32;12.30;;;6.50;;
84864;SDS011;75122;41.650;25.368;2024-03-17T10:42:59;8.93;;;5.15;;
84864;SDS011;75122;41.650;25.368;2024-03-17T10:45:25;8.50;;;6.07;;
84864;SDS011;75122;41.650;25.368;2024-03-17T10:47:55;6.18;;;4.82;;
84864;SDS011;75122;41.650;25.368;2024-03-17T10:50:25;8.73;;;5.38;;
84864;SDS011;75122;41.650;25.368;2024-03-17T10:52:55;8.25;;;5.80;;
84864;SDS011;75122;41.650;25.368;2024-03-17T10:55:27;8.00;;;5.32;;
84864;SDS011;75122;41.650;25.368;2024-03-17T10:57:57;7.47;;;5.30;;
84864;SDS011;75122;41.650;25.368;2024-03-17T11:00:27;9.40;;;4.97;;
84864;SDS011;75122;41.650;25.368;2024-03-17T11:02:54;8.55;;;5.70;;
84864;SDS011;75122;41.650;25.368;2024-03-17T11:07:50;7.65;;;5.80;;
84864;SDS011;75122;41.650;25.368;2024-03-17T11:10:29;8.27;;;5.50;;
84864;SDS011;75122;41.650;25.368;2024-03-17T11:13:02;7.60;;;5.35;;
84864;SDS011;75122;41.650;25.368;2024-03-17T11:20:37;7.00;;;4.93;;
84864;SDS011;75122;41.650;25.368;2024-03-17T11:23:04;7.28;;;5.05;;
84864;SDS011;75122;41.650;25.368;2024-03-17T11:25:36;7.82;;;5.10;;
84864;SDS011;75122;41.650;25.368;2024-03-17T11:28:06;7.80;;;4.90;;
84864;SDS011;75122;41.650;25.368;2024-03-17T11:39:17;6.03;;;4.57;;
84864;SDS011;75122;41.650;25.368;2024-03-17T11:41:44;10.10;;;5.28;;
84864;SDS011;75122;41.650;25.368;2024-03-17T11:46:59;6.10;;;4.45;;
84864;SDS011;75122;41.650;25.368;2024-03-17T11:49:33;10.18;;;6.20;;
84864;SDS011;75122;41.650;25.368;2024-03-17T11:52:02;9.80;;;6.40;;
84864;SDS011;75122;41.650;25.368;2024-03-17T11:54:30;8.57;;;5.65;;
84864;SDS011;75122;41.650;25.368;2024-03-17T11:57:01;6.20;;;4.53;;
84864;SDS011;75122;41.650;25.368;2024-03-17T11:59:27;5.30;;;4.47;;
84864;SDS011;75122;41.650;25.368;2024-03-17T12:01:52;7.88;;;3.97;;
84864;SDS011;75122;41.650;25.368;2024-03-17T12:04:19;6.03;;;3.85;;
84864;SDS011;75122;41.650;25.368;2024-03-17T12:06:46;7.15;;;4.82;;
84864;SDS011;75122;41.650;25.368;2024-03-17T12:11:58;5.47;;;3.92;;
84864;SDS011;75122;41.650;25.368;2024-03-17T12:14:32;5.78;;;4.45;;
84864;SDS011;75122;41.650;25.368;2024-03-17T12:17:01;6.70;;;4.68;;
84864;SDS011;75122;41.650;25.368;2024-03-17T12:19:28;6.95;;;4.07;;
84864;SDS011;75122;41.650;25.368;2024-03-17T12:21:55;5.63;;;4.20;;
84864;SDS011;75122;41.650;25.368;2024-03-17T12:24:22;4.20;;;3.58;;
84864;SDS011;75122;41.650;25.368;2024-03-17T12:26:51;5.80;;;3.83;;
84864;SDS011;75122;41.650;25.368;2024-03-17T12:29:24;4.97;;;4.43;;
84864;SDS011;75122;41.650;25.368;2024-03-17T12:32:06;5.72;;;3.85;;
84864;SDS011;75122;41.650;25.368;2024-03-17T12:34:38;9.32;;;5.57;;
84864;SDS011;75122;41.650;25.368;2024-03-17T12:37:05;7.05;;;5.25;;
84864;SDS011;75122;41.650;25.368;2024-03-17T12:39:31;5.10;;;3.92;;
84864;SDS011;75122;41.650;25.368;2024-03-17T12:42:01;6.57;;;4.15;;
84864;SDS011;75122;41.650;25.368;2024-03-17T12:44:30;7.72;;;4.07;;
84864;SDS011;75122;41.650;25.368;2024-03-17T12:47:00;6.50;;;4.20;;
84864;SDS011;75122;41.650;25.368;2024-03-17T12:49:30;5.03;;;4.10;;
84864;SDS011;75122;41.650;25.368;2024-03-17T12:51:57;5.72;;;3.92;;
84864;SDS011;75122;41.650;25.368;2024-03-17T12:54:24;6.88;;;4.95;;
84864;SDS011;75122;41.650;25.368;2024-03-17T12:57:06;8.57;;;5.43;;
84864;SDS011;75122;41.650;25.368;2024-03-17T12:59:50;10.18;;;5.97;;
84864;SDS011;75122;41.650;25.368;2024-03-17T13:02:34;5.45;;;4.10;;
84864;SDS011;75122;41.650;25.368;2024-03-17T13:05:07;5.30;;;4.68;;
84864;SDS011;75122;41.650;25.368;2024-03-17T13:07:46;5.15;;;3.95;;
84864;SDS011;75122;41.650;25.368;2024-03-17T13:10:15;4.82;;;4.05;;
84864;SDS011;75122;41.650;25.368;2024-03-17T13:12:44;8.00;;;5.38;;
84864;SDS011;75122;41.650;25.368;2024-03-17T13:15:16;7.95;;;4.80;;
84864;SDS011;75122;41.650;25.368;2024-03-17T13:17:45;6.95;;;5.00;;
84864;SDS011;75122;41.650;25.368;2024-03-17T13:20:15;4.82;;;3.67;;
84864;SDS011;75122;41.650;25.368;2024-03-17T13:22:41;4.05;;;3.53;;
84864;SDS011;75122;41.650;25.368;2024-03-17T13:25:09;4.00;;;3.28;;
84864;SDS011;75122;41.650;25.368;2024-03-17T13:27:45;3.97;;;3.10;;
84864;SDS011;75122;41.650;25.368;2024-03-17T13:30:14;4.63;;;3.45;;
84864;SDS011;75122;41.650;25.368;2024-03-17T13:32:42;5.38;;;4.35;;
84864;SDS011;75122;41.650;25.368;2024-03-17T13:37:47;9.63;;;4.65;;
84864;SDS011;75122;41.650;25.368;2024-03-17T13:40:19;4.63;;;4.10;;
84864;SDS011;75122;41.650;25.368;2024-03-17T13:42:47;4.93;;;3.55;;
84864;SDS011;75122;41.650;25.368;2024-03-17T13:45:14;7.22;;;3.38;;
84864;SDS011;75122;41.650;25.368;2024-03-17T13:47:41;4.97;;;3.80;;
84864;SDS011;75122;41.650;25.368;2024-03-17T13:50:08;5.65;;;3.53;;
84864;SDS011;75122;41.650;25.368;2024-03-17T13:52:40;4.68;;;3.47;;
84864;SDS011;75122;41.650;25.368;2024-03-17T13:55:06;11.77;;;5.78;;
84864;SDS011;75122;41.650;25.368;2024-03-17T13:57:39;7.45;;;5.55;;
84864;SDS011;75122;41.650;25.368;2024-03-17T14:00:05;7.68;;;4.72;;
84864;SDS011;75122;41.650;25.368;2024-03-17T14:02:32;4.90;;;3.45;;
84864;SDS011;75122;41.650;25.368;2024-03-17T14:04:58;6.45;;;4.70;;
84864;SDS011;75122;41.650;25.368;2024-03-17T14:07:24;5.93;;;4.60;;
84864;SDS011;75122;41.650;25.368;2024-03-17T14:09:50;6.38;;;4.68;;
84864;SDS011;75122;41.650;25.368;2024-03-17T14:12:15;7.90;;;4.57;;
84864;SDS011;75122;41.650;25.368;2024-03-17T14:14:41;11.02;;;6.40;;
84864;SDS011;75122;41.650;25.368;2024-03-17T14:17:07;11.10;;;6.05;;
84864;SDS011;75122;41.650;25.368;2024-03-17T14:19:32;12.65;;;7.20;;
84864;SDS011;75122;41.650;25.368;2024-03-17T14:21:58;9.40;;;5.88;;
84864;SDS011;75122;41.650;25.368;2024-03-17T14:24:23;5.88;;;3.55;;
84864;SDS011;75122;41.650;25.368;2024-03-17T14:26:49;5.63;;;4.03;;
84864;SDS011;75122;41.650;25.368;2024-03-17T14:29:14;6.85;;;3.60;;
84864;SDS011;75122;41.650;25.368;2024-03-17T14:31:41;8.60;;;5.13;;
84864;SDS011;75122;41.650;25.368;2024-03-17T14:34:09;6.65;;;3.85;;
84864;SDS011;75122;41.650;25.368;2024-03-17T14:36:36;5.45;;;3.80;;
84864;SDS011;75122;41.650;25.368;2024-03-17T14:39:02;6.32;;;4.32;;
84864;SDS011;75122;41.650;25.368;2024-03-17T14:41:28;12.25;;;7.03;;
84864;SDS011;75122;41.650;25.368;2024-03-17T14:43:56;10.85;;;6.85;;
84864;SDS011;75122;41.650;25.368;2024-03-17T14:46:23;19.08;;;9.00;;
84864;SDS011;75122;41.650;25.368;2024-03-17T14:48:52;36.65;;;15.15;;
84864;SDS011;75122;41.650;25.368;2024-03-17T14:51:18;38.80;;;14.93;;
84864;SDS011;75122;41.650;25.368;2024-03-17T14:53:46;24.30;;;11.52;;
84864;SDS011;75122;41.650;25.368;2024-03-17T14:56:16;17.67;;;8.23;;
84864;SDS011;75122;41.650;25.368;2024-03-17T14:58:43;23.52;;;13.05;;
84864;SDS011;75122;41.650;25.368;2024-03-17T15:01:09;29.38;;;23.00;;